首页
METAR-TAF:

METAR-TAF

机场 :

Grayling Army Airfield

Grayling, 密歇根州, 美国

纬度: 44-40-49N, 经度: 084-43-44W, 海拔: 353米

当前天气观测

该预报发布于7小时和27分钟前的05:58 UTC
静风
温度 12°C
湿度 94%
气压 1016 hPa
能見度: 12.9公里
天空无云

METAR: KGOV 180558Z AUTO 00000KT 8SM CLR 12/11 A2999 RMK AO2 SLP160 T01210112 10220 20119 58002 $

时间: 09:25 (13:25 UTC)


TAF: 丢失

超过4000个机场的气象观测和天气预报(METAR&TAF报告)。

可查询的气象台以黄色和红色小点在地图上表示。

将鼠标移到小点上方,可查看气象台名称。

然后点击查看天气观测和预报。

如需切换地图:点击带黑十字的绿色按钮放大地图;点击带横线的绿色按钮缩小地图;或者点击绿色箭头查看邻近地区的地图。


METAR-TAF: